Time;durP1;ratioP1;P1;durP2;ratioP2;P2;SDS_P1;SDS_P2;PMS_P1;PMS_P2;Temp;Humidity;BMP_temperature;BMP_pressure;BME280_temperature;BME280_humidity;BME280_pressure;Samples;Min_cycle;Max_cycle;Signal;HPM_P1;HPM_P2
2024/03/31 00:02:23;;;;;;;4.60;2.92;;;7.60;99.90;;;;;;5051118;28;20103;-71
2024/03/31 00:04:49;;;;;;;7.00;3.58;;;7.60;99.90;;;;;;5051845;28;20375;-71
2024/03/31 00:07:15;;;;;;;5.38;3.10;;;7.60;99.90;;;;;;5052174;28;20084;-71
2024/03/31 00:09:40;;;;;;;6.45;3.63;;;7.50;99.90;;;;;;5050655;28;20083;-72
2024/03/31 00:12:06;;;;;;;7.38;3.92;;;7.50;99.90;;;;;;5050704;28;20052;-72
2024/03/31 00:14:32;;;;;;;6.82;4.13;;;7.40;99.90;;;;;;5051512;28;20072;-72
2024/03/31 00:16:58;;;;;;;7.72;4.38;;;7.50;99.90;;;;;;5049264;28;20037;-71
2024/03/31 00:19:24;;;;;;;7.57;4.65;;;7.40;99.90;;;;;;5050395;28;20120;-72
2024/03/31 00:21:49;;;;;;;9.65;4.90;;;7.60;99.90;;;;;;5033008;28;20552;-72
2024/03/31 00:24:15;;;;;;;11.02;5.25;;;7.40;99.90;;;;;;5048994;28;20033;-72
2024/03/31 00:26:41;;;;;;;11.38;6.15;;;7.40;99.90;;;;;;5051799;28;20041;-71
2024/03/31 00:29:06;;;;;;;12.23;6.90;;;7.40;99.90;;;;;;5051513;28;20055;-72
2024/03/31 00:31:32;;;;;;;12.38;7.30;;;7.40;99.90;;;;;;5050108;28;20048;-71
2024/03/31 00:33:58;;;;;;;12.77;7.30;;;7.30;99.90;;;;;;5051560;28;20148;-72
2024/03/31 00:36:23;;;;;;;11.80;6.65;;;7.30;99.90;;;;;;5051343;28;20067;-72
2024/03/31 00:38:49;;;;;;;11.80;6.30;;;7.30;99.90;;;;;;5051846;28;20045;-72
2024/03/31 00:41:15;;;;;;;11.75;6.47;;;7.40;99.90;;;;;;5051367;28;20075;-71
2024/03/31 00:43:40;;;;;;;11.38;6.65;;;7.30;99.90;;;;;;5051134;28;20033;-72
2024/03/31 00:46:06;;;;;;;10.25;6.47;;;7.30;99.90;;;;;;5049910;28;20119;-72
2024/03/31 00:48:32;;;;;;;10.68;6.13;;;7.40;99.90;;;;;;5049524;28;20123;-72
2024/03/31 00:50:58;;;;;;;10.65;6.13;;;7.30;99.90;;;;;;5043117;28;20120;-72
2024/03/31 00:53:23;;;;;;;8.60;6.32;;;7.30;99.90;;;;;;5049497;28;20043;-71
2024/03/31 00:55:49;;;;;;;11.73;6.25;;;7.20;99.90;;;;;;5035995;28;20044;-72
2024/03/31 00:58:15;;;;;;;9.32;5.95;;;7.20;99.90;;;;;;5044221;28;20036;-71
2024/03/31 01:00:40;;;;;;;9.23;6.47;;;7.20;99.90;;;;;;5050397;28;20116;-72
2024/03/31 01:03:07;;;;;;;10.02;6.32;;;7.20;99.90;;;;;;5049481;28;20049;-72
2024/03/31 01:05:34;;;;;;;9.23;5.82;;;7.30;99.90;;;;;;5050713;28;20633;-72
2024/03/31 01:08:00;;;;;;;9.38;6.28;;;7.10;99.90;;;;;;5051561;28;20064;-72
2024/03/31 01:10:26;;;;;;;8.55;6.22;;;7.10;99.90;;;;;;5046026;28;20120;-72
2024/03/31 01:12:51;;;;;;;8.70;5.95;;;7.10;99.90;;;;;;5049536;28;20163;-72
2024/03/31 01:15:18;;;;;;;10.70;6.80;;;7.20;99.90;;;;;;5050078;28;20029;-72
2024/03/31 01:17:44;;;;;;;12.75;7.57;;;7.10;99.90;;;;;;5049568;28;20045;-72
2024/03/31 01:20:10;;;;;;;11.10;7.28;;;7.20;99.90;;;;;;5050615;28;20052;-72
2024/03/31 01:22:37;;;;;;;12.00;7.95;;;7.20;99.90;;;;;;5047936;28;21532;-72
2024/03/31 01:25:03;;;;;;;11.27;8.13;;;7.30;99.90;;;;;;5031777;28;20047;-72
2024/03/31 01:27:29;;;;;;;12.18;8.13;;;7.20;99.90;;;;;;5050691;28;20047;-72
2024/03/31 01:29:55;;;;;;;12.35;7.88;;;7.20;99.90;;;;;;5050083;28;20029;-72
2024/03/31 01:32:20;;;;;;;11.38;7.57;;;7.30;99.90;;;;;;5049602;28;20147;-72
2024/03/31 01:34:46;;;;;;;13.25;7.70;;;7.20;99.90;;;;;;5047439;28;20040;-72
2024/03/31 01:37:12;;;;;;;10.85;7.28;;;7.10;99.90;;;;;;5049573;28;20049;-72
2024/03/31 01:39:37;;;;;;;10.30;7.20;;;7.10;99.90;;;;;;5049679;28;20384;-72
2024/03/31 01:42:03;;;;;;;11.23;7.22;;;7.10;99.90;;;;;;5049651;28;20546;-72
2024/03/31 01:44:29;;;;;;;11.38;7.75;;;7.00;99.90;;;;;;5050039;28;20132;-72
2024/03/31 01:46:55;;;;;;;9.68;6.55;;;7.00;99.90;;;;;;5048562;28;20052;-72
2024/03/31 01:49:20;;;;;;;9.60;6.30;;;7.00;99.90;;;;;;5050057;28;20071;-72
2024/03/31 01:51:46;;;;;;;8.52;5.88;;;6.90;99.90;;;;;;5048866;28;20128;-72
2024/03/31 01:54:11;;;;;;;9.48;6.28;;;6.90;99.90;;;;;;5050072;28;20033;-72
2024/03/31 01:56:37;;;;;;;8.40;5.47;;;6.90;99.90;;;;;;5049078;28;20043;-72
2024/03/31 01:59:03;;;;;;;8.68;5.60;;;6.80;99.90;;;;;;5048424;28;20040;-72
2024/03/31 02:01:29;;;;;;;8.35;5.65;;;6.80;99.90;;;;;;5048580;28;20402;-72
2024/03/31 02:03:54;;;;;;;10.90;6.43;;;6.80;99.90;;;;;;5048366;28;20044;-72
2024/03/31 02:06:20;;;;;;;10.52;6.20;;;6.80;99.90;;;;;;5049235;28;20117;-72
2024/03/31 02:08:46;;;;;;;9.50;6.57;;;6.80;99.90;;;;;;5050273;28;20064;-72
2024/03/31 02:11:11;;;;;;;9.18;6.05;;;6.90;99.90;;;;;;5049709;28;20033;-72
2024/03/31 02:13:37;;;;;;;8.50;5.60;;;6.80;99.90;;;;;;5049510;28;20556;-72
2024/03/31 02:16:03;;;;;;;9.07;5.68;;;6.80;99.90;;;;;;5047914;28;20049;-72
2024/03/31 02:18:28;;;;;;;7.18;5.13;;;6.80;99.90;;;;;;5049061;28;20050;-72
2024/03/31 02:20:56;;;;;;;7.93;5.20;;;6.80;99.90;;;;;;5047538;28;20546;-72
2024/03/31 02:23:22;;;;;;;9.25;5.40;;;6.80;99.90;;;;;;5047111;28;20068;-72
2024/03/31 02:25:47;;;;;;;10.25;5.55;;;6.90;99.90;;;;;;5049861;28;20126;-72
2024/03/31 02:28:13;;;;;;;10.10;5.72;;;6.90;99.90;;;;;;5049546;28;20037;-72
2024/03/31 02:30:41;;;;;;;8.43;5.70;;;6.90;99.90;;;;;;5042803;28;20789;-72
2024/03/31 02:33:07;;;;;;;9.23;6.10;;;6.90;99.90;;;;;;5049397;28;20041;-72
2024/03/31 02:35:32;;;;;;;9.57;5.95;;;6.90;99.90;;;;;;5048855;28;20037;-72
2024/03/31 02:37:58;;;;;;;9.38;6.30;;;6.80;99.90;;;;;;5049162;28;20036;-72
2024/03/31 02:40:23;;;;;;;10.75;6.20;;;6.90;99.90;;;;;;5041604;28;20446;-72
2024/03/31 02:42:49;;;;;;;9.05;5.95;;;6.80;99.90;;;;;;5048314;28;20037;-72
2024/03/31 02:45:15;;;;;;;10.82;6.63;;;6.80;99.90;;;;;;5047991;28;20121;-72
2024/03/31 02:47:40;;;;;;;9.75;6.90;;;6.80;99.90;;;;;;5048057;28;20045;-72
2024/03/31 02:50:06;;;;;;;10.05;6.35;;;6.90;99.90;;;;;;5048882;28;20124;-70
2024/03/31 02:52:32;;;;;;;11.45;6.28;;;6.70;99.90;;;;;;5049050;28;20411;-71
2024/03/31 02:54:58;;;;;;;10.57;6.25;;;6.70;99.90;;;;;;5046793;28;20041;-71
2024/03/31 02:57:23;;;;;;;10.13;6.55;;;6.70;99.90;;;;;;5047782;28;20148;-71
2024/03/31 02:59:49;;;;;;;13.13;7.00;;;6.80;99.90;;;;;;5048912;28;20128;-72
2024/03/31 03:02:15;;;;;;;9.02;5.90;;;6.60;99.90;;;;;;5045440;28;20129;-71
2024/03/31 03:04:40;;;;;;;10.27;6.35;;;6.60;99.90;;;;;;5048402;28;20045;-71
2024/03/31 03:07:06;;;;;;;10.63;6.05;;;6.60;99.90;;;;;;5049336;28;20044;-71
2024/03/31 03:09:32;;;;;;;9.80;6.25;;;6.50;99.90;;;;;;5047577;28;20071;-72
2024/03/31 03:11:57;;;;;;;8.98;6.05;;;6.60;99.90;;;;;;5049196;28;20041;-71
2024/03/31 03:14:23;;;;;;;11.40;6.00;;;6.60;99.90;;;;;;5047743;28;20071;-71
2024/03/31 03:16:49;;;;;;;10.77;6.32;;;6.60;99.90;;;;;;5049496;28;20398;-72
2024/03/31 03:19:14;;;;;;;10.57;6.70;;;6.60;99.90;;;;;;5048484;28;20037;-71
2024/03/31 03:21:40;;;;;;;10.50;6.80;;;6.60;99.90;;;;;;5048307;28;20044;-71
2024/03/31 03:24:06;;;;;;;9.57;6.13;;;6.60;99.90;;;;;;5041405;28;20044;-72
2024/03/31 03:26:32;;;;;;;8.50;5.78;;;6.60;99.90;;;;;;5050910;28;20045;-71
2024/03/31 03:28:58;;;;;;;8.50;5.70;;;6.60;99.90;;;;;;5053030;28;20048;-71
2024/03/31 03:31:24;;;;;;;10.02;6.53;;;6.50;99.90;;;;;;5050466;28;20048;-72
2024/03/31 03:33:49;;;;;;;9.15;6.35;;;6.60;99.90;;;;;;5051690;28;20120;-72
2024/03/31 03:36:15;;;;;;;9.27;6.45;;;6.60;99.90;;;;;;5052512;28;20119;-72
2024/03/31 03:38:41;;;;;;;9.00;6.75;;;6.60;99.90;;;;;;5053111;28;20144;-72
2024/03/31 03:41:06;;;;;;;9.07;6.57;;;6.60;99.90;;;;;;5052552;28;20025;-72
2024/03/31 03:43:35;;;;;;;10.10;6.85;;;6.60;99.90;;;;;;5050663;28;20073;-72
2024/03/31 03:46:01;;;;;;;10.23;6.75;;;6.60;99.90;;;;;;5052882;28;20151;-72
2024/03/31 03:48:27;;;;;;;9.70;6.63;;;6.60;99.90;;;;;;5051331;28;20029;-72
2024/03/31 03:50:53;;;;;;;10.10;7.22;;;6.60;99.90;;;;;;5052440;28;20102;-71
2024/03/31 03:53:19;;;;;;;9.63;6.72;;;6.70;99.90;;;;;;5051641;28;20036;-72
2024/03/31 03:55:45;;;;;;;10.15;7.25;;;6.70;99.90;;;;;;5051426;28;20086;-72
2024/03/31 03:58:10;;;;;;;10.77;7.53;;;6.70;99.90;;;;;;5043486;28;20124;-72
2024/03/31 04:00:43;;;;;;;11.07;7.53;;;6.70;99.90;;;;;;5052145;28;20112;-72
2024/03/31 04:03:08;;;;;;;10.85;7.47;;;6.80;99.90;;;;;;5040671;28;20085;-72
2024/03/31 04:05:34;;;;;;;11.10;8.02;;;6.70;99.90;;;;;;5051487;28;20492;-71
2024/03/31 04:08:00;;;;;;;9.75;7.25;;;6.70;99.90;;;;;;5050840;28;20043;-72
2024/03/31 04:10:26;;;;;;;10.70;7.07;;;6.80;99.90;;;;;;5051097;28;20049;-72
2024/03/31 04:12:51;;;;;;;10.15;7.18;;;6.80;99.90;;;;;;5052043;28;20039;-72
2024/03/31 04:15:17;;;;;;;8.75;6.57;;;6.80;99.90;;;;;;5052621;28;20561;-72
2024/03/31 04:17:43;;;;;;;8.77;6.75;;;6.90;99.90;;;;;;5052215;28;20040;-72
2024/03/31 04:20:08;;;;;;;10.65;6.78;;;6.90;99.90;;;;;;5050517;28;20084;-71
2024/03/31 04:22:34;;;;;;;9.65;6.70;;;7.00;99.90;;;;;;5050704;28;20650;-72
2024/03/31 04:25:00;;;;;;;9.18;6.65;;;7.00;99.90;;;;;;5047561;28;20061;-72
2024/03/31 04:27:27;;;;;;;10.57;7.45;;;7.00;99.90;;;;;;5052396;28;20045;-71
2024/03/31 04:29:52;;;;;;;10.07;7.32;;;7.00;99.90;;;;;;5051172;28;20047;-71
2024/03/31 04:32:18;;;;;;;10.80;7.65;;;7.10;99.90;;;;;;5050939;28;20033;-72
2024/03/31 04:34:44;;;;;;;10.88;7.30;;;7.10;99.90;;;;;;5051410;28;20041;-72
2024/03/31 04:37:09;;;;;;;10.27;7.57;;;7.20;99.90;;;;;;5049629;28;20103;-72
2024/03/31 04:39:35;;;;;;;10.43;7.70;;;7.20;99.90;;;;;;5050910;28;20442;-71
2024/03/31 04:42:01;;;;;;;10.43;7.57;;;7.20;99.90;;;;;;5048736;28;20458;-72
2024/03/31 04:44:26;;;;;;;9.75;7.60;;;7.20;99.90;;;;;;5050841;28;20041;-72
2024/03/31 04:46:52;;;;;;;10.60;7.00;;;7.20;99.90;;;;;;5050200;28;20090;-72
2024/03/31 04:49:18;;;;;;;10.70;7.45;;;7.20;99.90;;;;;;5067513;22;20063;-72
2024/03/31 04:51:45;;;;;;;10.88;7.85;;;7.20;99.90;;;;;;5051721;28;20041;-72
2024/03/31 04:54:11;;;;;;;11.63;7.93;;;7.30;99.90;;;;;;5055292;28;20037;-72
2024/03/31 04:56:37;;;;;;;11.43;8.45;;;7.30;99.90;;;;;;5051034;28;20565;-71
2024/03/31 04:59:02;;;;;;;13.25;8.50;;;7.30;99.90;;;;;;5049114;28;20041;-72
2024/03/31 05:01:28;;;;;;;11.07;8.32;;;7.30;99.90;;;;;;5049978;28;20410;-72
2024/03/31 05:03:53;;;;;;;11.10;7.95;;;7.30;99.90;;;;;;5050663;28;20411;-72
2024/03/31 05:06:19;;;;;;;12.52;8.05;;;7.30;99.90;;;;;;5051376;28;20033;-72
2024/03/31 05:08:45;;;;;;;11.35;7.93;;;7.30;99.90;;;;;;5051327;28;20052;-72
2024/03/31 05:11:10;;;;;;;11.35;8.18;;;7.30;99.90;;;;;;5041936;28;20032;-72
2024/03/31 05:13:36;;;;;;;13.25;7.93;;;7.30;99.90;;;;;;5041139;28;20036;-72
2024/03/31 05:16:04;;;;;;;10.13;8.07;;;7.30;99.90;;;;;;5044512;28;20397;-72
2024/03/31 05:18:29;;;;;;;12.27;8.32;;;7.30;99.90;;;;;;5045971;28;20075;-72
2024/03/31 05:21:01;;;;;;;11.75;8.95;;;7.40;99.90;;;;;;5045822;28;20041;-71
2024/03/31 05:23:28;;;;;;;11.47;8.33;;;7.40;99.90;;;;;;5049617;28;20057;-69
2024/03/31 05:25:55;;;;;;;13.40;8.32;;;7.40;99.90;;;;;;5044563;28;20142;-69
2024/03/31 05:28:21;;;;;;;12.00;8.73;;;7.40;99.90;;;;;;5050005;28;20091;-69
2024/03/31 05:30:47;;;;;;;11.15;8.00;;;7.40;99.90;;;;;;5043855;28;20131;-69
2024/03/31 05:33:13;;;;;;;13.43;8.93;;;7.40;99.90;;;;;;5049005;28;20112;-69
2024/03/31 05:35:43;;;;;;;12.38;8.95;;;7.50;99.90;;;;;;5051009;28;20136;-69
2024/03/31 05:38:09;;;;;;;12.65;8.75;;;7.40;99.90;;;;;;5046657;28;20685;-70
2024/03/31 05:40:38;;;;;;;13.07;8.65;;;7.40;99.90;;;;;;5049044;28;20045;-71
2024/03/31 05:43:05;;;;;;;13.93;9.38;;;7.50;99.90;;;;;;5046574;28;20033;-71
2024/03/31 05:45:30;;;;;;;12.73;8.88;;;7.50;99.90;;;;;;5048652;28;20534;-72
2024/03/31 05:47:56;;;;;;;14.25;9.63;;;7.50;99.90;;;;;;5049761;28;20048;-72
2024/03/31 05:50:22;;;;;;;14.32;9.07;;;7.50;99.90;;;;;;5048011;28;20048;-72
2024/03/31 05:52:47;;;;;;;13.80;9.60;;;7.50;99.90;;;;;;5046767;28;20041;-72
2024/03/31 05:55:13;;;;;;;12.57;9.02;;;7.50;99.90;;;;;;5048832;28;20116;-72
2024/03/31 05:57:39;;;;;;;13.85;9.32;;;7.60;99.90;;;;;;5049245;28;20049;-72
2024/03/31 06:00:05;;;;;;;13.82;9.88;;;7.70;99.90;;;;;;5049364;28;20403;-72
2024/03/31 06:02:30;;;;;;;15.55;9.38;;;7.60;99.90;;;;;;5050136;28;20527;-72
2024/03/31 06:04:58;;;;;;;14.57;9.25;;;7.60;99.90;;;;;;5049760;28;20033;-72
2024/03/31 06:07:24;;;;;;;14.02;9.57;;;7.70;99.90;;;;;;5047274;28;20065;-72
2024/03/31 06:09:50;;;;;;;14.88;9.90;;;7.70;99.90;;;;;;5045242;28;20065;-71
2024/03/31 06:12:16;;;;;;;14.90;10.10;;;7.70;99.90;;;;;;5042973;28;20068;-72
2024/03/31 06:14:41;;;;;;;13.55;9.52;;;7.70;99.90;;;;;;5056755;28;20436;-72
2024/03/31 06:17:07;;;;;;;13.50;10.23;;;7.70;99.90;;;;;;5049047;28;20518;-72
2024/03/31 06:19:32;;;;;;;18.73;10.43;;;7.80;99.90;;;;;;5048355;28;20090;-71
2024/03/31 06:21:58;;;;;;;15.25;10.60;;;7.80;99.90;;;;;;5049574;28;20049;-72
2024/03/31 06:24:24;;;;;;;15.23;10.88;;;7.80;99.90;;;;;;5046978;28;20048;-72
2024/03/31 06:26:49;;;;;;;15.80;10.77;;;7.80;99.90;;;;;;5049695;28;20043;-72
2024/03/31 06:29:15;;;;;;;14.90;11.15;;;7.80;99.90;;;;;;5049669;28;20041;-72
2024/03/31 06:31:40;;;;;;;16.48;11.02;;;7.90;99.90;;;;;;5047675;28;20380;-72
2024/03/31 06:34:06;;;;;;;16.15;11.25;;;7.80;99.90;;;;;;5049169;28;20037;-72
2024/03/31 06:36:32;;;;;;;19.15;11.35;;;7.90;99.90;;;;;;5046376;28;20040;-72
2024/03/31 06:38:57;;;;;;;17.17;11.43;;;7.90;99.90;;;;;;5047804;28;20049;-71
2024/03/31 06:41:23;;;;;;;18.48;11.70;;;8.00;99.90;;;;;;5046566;28;20045;-72
2024/03/31 06:43:49;;;;;;;17.42;12.55;;;7.90;99.90;;;;;;5043543;28;20049;-71
2024/03/31 06:46:14;;;;;;;16.95;12.23;;;7.90;99.90;;;;;;5044079;28;20399;-72
2024/03/31 06:48:40;;;;;;;17.17;11.60;;;7.90;99.90;;;;;;5048111;28;20037;-72
2024/03/31 06:51:06;;;;;;;16.52;11.85;;;8.00;99.90;;;;;;5046848;28;20043;-71
2024/03/31 06:53:31;;;;;;;19.92;12.63;;;8.00;99.90;;;;;;5046712;28;20041;-71
2024/03/31 06:55:57;;;;;;;17.05;12.15;;;8.10;99.90;;;;;;5055680;28;20079;-72
2024/03/31 06:58:22;;;;;;;19.83;11.98;;;8.00;99.90;;;;;;5048092;28;20412;-72
2024/03/31 07:00:48;;;;;;;17.42;11.57;;;8.00;99.90;;;;;;5048994;28;20045;-71
2024/03/31 07:03:14;;;;;;;17.85;12.73;;;8.10;99.90;;;;;;5055200;28;20122;-71
2024/03/31 07:05:39;;;;;;;18.25;12.48;;;8.10;99.90;;;;;;5051581;28;20044;-72
2024/03/31 07:08:05;;;;;;;19.15;13.27;;;8.10;99.90;;;;;;5054946;28;20162;-71
2024/03/31 07:10:31;;;;;;;19.00;13.60;;;8.10;99.90;;;;;;5058087;28;20041;-72
2024/03/31 07:12:56;;;;;;;18.75;12.80;;;8.10;99.90;;;;;;5059181;28;20082;-72
2024/03/31 07:15:22;;;;;;;22.58;14.00;;;8.20;99.90;;;;;;5053400;28;20045;-72
2024/03/31 07:17:49;;;;;;;19.38;13.25;;;8.10;99.90;;;;;;5057582;28;20032;-72
2024/03/31 07:20:15;;;;;;;19.55;13.02;;;8.10;99.90;;;;;;5061482;28;20052;-71
2024/03/31 07:22:41;;;;;;;20.70;13.75;;;8.10;99.90;;;;;;5053243;28;20381;-72
2024/03/31 07:25:07;;;;;;;23.23;14.05;;;7.80;99.90;;;;;;5071514;28;20036;-72
2024/03/31 07:27:32;;;;;;;19.55;13.73;;;8.20;99.90;;;;;;5053389;28;20044;-72
2024/03/31 07:29:58;;;;;;;20.00;13.50;;;8.20;99.90;;;;;;5067015;28;20044;-72
2024/03/31 07:32:23;;;;;;;22.98;13.98;;;8.30;99.90;;;;;;5053059;28;20530;-71
2024/03/31 07:34:49;;;;;;;20.95;13.90;;;8.20;99.90;;;;;;5059193;28;20029;-72
2024/03/31 07:37:15;;;;;;;25.88;15.38;;;8.30;99.90;;;;;;5057257;28;20073;-72
2024/03/31 07:39:40;;;;;;;21.30;14.48;;;8.30;99.90;;;;;;5052928;28;20471;-72
2024/03/31 07:42:06;;;;;;;22.20;14.88;;;8.30;99.90;;;;;;5052430;28;20164;-72
2024/03/31 07:44:31;;;;;;;20.85;15.55;;;8.40;99.90;;;;;;5046157;28;20047;-72
2024/03/31 07:46:58;;;;;;;20.80;15.20;;;8.50;99.90;;;;;;5052963;28;20040;-71
2024/03/31 07:49:24;;;;;;;21.88;14.75;;;8.50;99.90;;;;;;5051516;28;20430;-72
2024/03/31 07:51:49;;;;;;;21.85;14.63;;;8.50;99.90;;;;;;5051757;28;20116;-69
2024/03/31 07:54:15;;;;;;;23.15;16.17;;;8.60;99.90;;;;;;5052114;28;20094;-69
2024/03/31 07:56:40;;;;;;;22.50;14.90;;;8.70;99.90;;;;;;5061362;28;20043;-69
2024/03/31 07:59:06;;;;;;;22.83;15.65;;;8.80;99.90;;;;;;5039009;28;20060;-69
2024/03/31 08:01:32;;;;;;;25.10;16.98;;;8.90;99.90;;;;;;5040648;28;20037;-70
2024/03/31 08:03:57;;;;;;;24.13;16.48;;;9.00;99.90;;;;;;5040588;28;20079;-72
2024/03/31 08:06:23;;;;;;;19.70;15.25;;;9.00;99.90;;;;;;5039950;28;20416;-72
2024/03/31 08:08:48;;;;;;;20.23;15.93;;;9.10;99.90;;;;;;5040897;28;20118;-71
2024/03/31 08:11:14;;;;;;;24.35;17.38;;;9.10;99.90;;;;;;5040844;28;20037;-71
2024/03/31 08:13:41;;;;;;;22.65;16.95;;;9.20;99.90;;;;;;5038966;28;20033;-70
2024/03/31 08:16:06;;;;;;;24.23;17.80;;;9.30;99.90;;;;;;5039882;28;20099;-69
2024/03/31 08:18:32;;;;;;;24.40;17.60;;;9.40;99.90;;;;;;5037593;28;20049;-69
2024/03/31 08:20:57;;;;;;;25.42;17.48;;;9.50;99.90;;;;;;5039341;28;20037;-69
2024/03/31 08:23:23;;;;;;;24.20;17.80;;;9.60;99.90;;;;;;5050784;28;20048;-69
2024/03/31 08:25:52;;;;;;;23.13;16.55;;;9.70;99.90;;;;;;5050240;28;20045;-69
2024/03/31 08:28:18;;;;;;;23.60;18.80;;;9.80;99.90;;;;;;5054464;28;20041;-69
2024/03/31 08:30:43;;;;;;;26.05;18.63;;;9.80;99.90;;;;;;5062303;28;20468;-69
2024/03/31 08:33:09;;;;;;;25.25;20.63;;;9.80;99.90;;;;;;5048828;28;20025;-70
2024/03/31 08:35:35;;;;;;;29.75;23.25;;;9.80;99.90;;;;;;5054038;28;20121;-70
2024/03/31 08:38:00;;;;;;;25.27;19.00;;;9.80;99.90;;;;;;5052113;28;20514;-69
2024/03/31 08:40:31;;;;;;;24.73;18.83;;;9.90;99.90;;;;;;5051197;28;20078;-70
2024/03/31 08:43:03;;;;;;;23.88;17.20;;;9.90;99.90;;;;;;5050075;28;20045;-70
2024/03/31 08:45:30;;;;;;;21.67;17.02;;;9.90;99.90;;;;;;5051928;28;20060;-70
2024/03/31 08:47:58;;;;;;;20.98;16.98;;;10.00;99.90;;;;;;5052329;28;20033;-70
2024/03/31 08:50:25;;;;;;;21.35;16.08;;;10.00;99.90;;;;;;5049637;28;20115;-70
2024/03/31 08:52:52;;;;;;;21.73;16.25;;;10.00;99.90;;;;;;5028358;28;20502;-70
2024/03/31 08:55:18;;;;;;;20.02;15.40;;;10.20;99.90;;;;;;5049180;28;20048;-70
2024/03/31 08:57:44;;;;;;;21.27;17.05;;;10.20;99.90;;;;;;5050322;28;20056;-70
2024/03/31 09:00:10;;;;;;;21.20;16.80;;;10.30;99.90;;;;;;5057339;28;20029;-70
2024/03/31 09:02:38;;;;;;;19.92;16.17;;;10.40;99.90;;;;;;5052795;28;20045;-70
2024/03/31 09:05:04;;;;;;;20.73;16.25;;;10.60;99.90;;;;;;5061655;28;20115;-70
2024/03/31 09:07:35;;;;;;;22.92;16.63;;;10.70;99.90;;;;;;5051892;28;20112;-69
2024/03/31 09:10:03;;;;;;;24.88;17.25;;;10.80;99.90;;;;;;5057062;28;20037;-70
2024/03/31 09:12:29;;;;;;;23.40;18.48;;;10.90;99.90;;;;;;5049822;28;20037;-70
2024/03/31 09:14:54;;;;;;;23.35;17.80;;;11.00;99.90;;;;;;5049744;28;20044;-70
2024/03/31 09:17:20;;;;;;;24.15;19.02;;;11.00;99.90;;;;;;5054290;28;20043;-69
2024/03/31 09:19:45;;;;;;;26.35;18.05;;;11.00;99.90;;;;;;5051766;28;20045;-70
2024/03/31 09:22:14;;;;;;;29.20;21.88;;;11.00;99.90;;;;;;5056680;28;20041;-71
2024/03/31 09:24:42;;;;;;;26.83;19.80;;;11.00;99.90;;;;;;5045893;28;20045;-69
2024/03/31 09:27:08;;;;;;;28.00;20.92;;;11.00;99.90;;;;;;5053442;28;20404;-69
2024/03/31 09:29:39;;;;;;;28.77;23.08;;;11.10;99.90;;;;;;5060681;28;20048;-69
2024/03/31 09:32:11;;;;;;;26.65;21.80;;;11.20;99.90;;;;;;5047662;28;20438;-68
2024/03/31 09:34:45;;;;;;;28.48;21.45;;;11.30;99.90;;;;;;5045033;28;20106;-70
2024/03/31 09:37:10;;;;;;;29.95;23.05;;;11.30;99.90;;;;;;5046843;28;20081;-69
2024/03/31 09:39:36;;;;;;;78.18;51.20;;;11.40;99.90;;;;;;5045652;28;20080;-70
2024/03/31 09:42:03;;;;;;;73.70;51.03;;;11.40;99.90;;;;;;5044196;28;20045;-70
2024/03/31 09:44:29;;;;;;;57.38;42.28;;;11.40;99.90;;;;;;5043511;28;20040;-70
2024/03/31 09:46:55;;;;;;;44.33;34.72;;;11.40;99.90;;;;;;5053298;28;20095;-70
2024/03/31 09:49:27;;;;;;;45.85;34.53;;;11.40;99.90;;;;;;5047145;28;20128;-70
2024/03/31 09:51:56;;;;;;;52.92;39.63;;;11.30;99.90;;;;;;5048809;28;20116;-70
2024/03/31 09:54:43;;;;;;;50.55;39.17;;;11.30;99.90;;;;;;5049867;28;20045;-70
2024/03/31 09:57:11;;;;;;;46.28;35.35;;;11.40;99.90;;;;;;5049437;28;20036;-69
2024/03/31 09:59:44;;;;;;;59.85;43.70;;;11.40;99.90;;;;;;5056005;28;20516;-69
2024/03/31 10:02:12;;;;;;;;;;;11.50;99.90;;;;;;5050072;28;20116;-69
2024/03/31 10:04:47;;;;;;;47.30;33.58;;;11.50;99.90;;;;;;5052254;28;20006;-70
2024/03/31 10:07:13;;;;;;;45.63;34.10;;;11.60;99.90;;;;;;5053046;28;20036;-69
2024/03/31 10:09:40;;;;;;;44.42;31.50;;;11.60;99.90;;;;;;5061110;28;20060;-69
2024/03/31 10:12:07;;;;;;;43.97;32.38;;;11.60;99.90;;;;;;5048389;28;20108;-70
2024/03/31 10:14:34;;;;;;;41.72;32.35;;;11.70;99.90;;;;;;5048637;28;20377;-70
2024/03/31 10:17:00;;;;;;;39.80;31.02;;;11.70;99.90;;;;;;5049703;28;20040;-69
2024/03/31 10:19:30;;;;;;;42.75;33.17;;;11.70;99.90;;;;;;5047034;28;20064;-69
2024/03/31 10:21:57;;;;;;;45.25;33.92;;;11.70;99.90;;;;;;5048375;28;20041;-70
2024/03/31 10:24:25;;;;;;;43.15;32.80;;;11.70;99.90;;;;;;5054602;28;20123;-70
2024/03/31 10:26:53;;;;;;;42.80;31.83;;;11.80;99.90;;;;;;5051198;28;20045;-68
2024/03/31 10:29:20;;;;;;;41.20;32.05;;;11.80;99.90;;;;;;5053712;28;20064;-70
2024/03/31 10:31:45;;;;;;;44.17;31.60;;;11.80;99.90;;;;;;5050898;28;20033;-69
2024/03/31 10:34:12;;;;;;;42.30;32.70;;;11.80;99.90;;;;;;5053058;28;20087;-71
2024/03/31 10:36:39;;;;;;;40.70;31.80;;;11.80;99.90;;;;;;5048127;28;20055;-70
2024/03/31 10:39:08;;;;;;;40.83;32.10;;;11.80;99.90;;;;;;5053538;28;20040;-68
2024/03/31 10:41:34;;;;;;;54.42;41.10;;;11.90;99.90;;;;;;5047585;28;20098;-69
2024/03/31 10:44:00;;;;;;;59.50;45.85;;;12.00;99.90;;;;;;5045584;28;21408;-70
2024/03/31 10:46:26;;;;;;;57.45;44.75;;;12.00;99.90;;;;;;5047784;28;20045;-74
2024/03/31 10:48:56;;;;;;;53.30;39.53;;;12.00;99.90;;;;;;5072307;22;20386;-78
2024/03/31 10:51:26;;;;;;;49.00;38.67;;;12.20;99.90;;;;;;5049039;28;20033;-78
2024/03/31 10:53:52;;;;;;;;;;;12.40;99.90;;;;;;5050824;28;20083;-78
2024/03/31 10:56:25;;;;;;;44.03;31.85;;;12.60;99.90;;;;;;5047826;28;19925;-78
2024/03/31 10:58:51;;;;;;;;;;;12.80;99.90;;;;;;5033119;28;20497;-78
2024/03/31 11:01:17;;;;;;;;;;;13.10;99.90;;;;;;5046528;28;19928;-78
2024/03/31 11:03:43;;;;;;;;;;;13.30;99.90;;;;;;5047807;28;19924;-78
2024/03/31 11:06:13;;;;;;;47.42;32.65;;;13.50;99.90;;;;;;5046512;28;19937;-78
2024/03/31 11:08:42;;;;;;;42.50;30.25;;;13.80;99.90;;;;;;5049806;28;20116;-79
2024/03/31 11:11:08;;;;;;;;;;;14.10;99.90;;;;;;5049430;28;20045;-78
2024/03/31 11:13:35;;;;;;;;;;;14.40;99.90;;;;;;5044185;28;19996;-78
2024/03/31 11:16:01;;;;;;;41.28;31.23;;;14.50;99.90;;;;;;5049165;28;19932;-78
2024/03/31 11:18:30;;;;;;;37.25;28.17;;;14.50;99.90;;;;;;5032017;28;20033;-79
2024/03/31 11:21:07;;;;;;;40.22;31.98;;;14.50;99.90;;;;;;5047218;28;20509;-78
2024/03/31 11:23:40;;;;;;;41.30;33.17;;;14.50;99.90;;;;;;5048315;28;20033;-78
2024/03/31 11:26:06;;;;;;;38.28;30.60;;;14.50;99.90;;;;;;5026930;28;20498;-79
2024/03/31 11:28:35;;;;;;;38.45;29.98;;;14.60;99.90;;;;;;5046639;28;20067;-78
2024/03/31 11:31:01;;;;;;;37.38;29.15;;;14.70;99.90;;;;;;5041679;28;20049;-79
2024/03/31 11:33:27;;;;;;;33.65;26.80;;;14.80;99.90;;;;;;5047294;28;20037;-78
2024/03/31 11:35:55;;;;;;;32.92;27.33;;;14.90;99.90;;;;;;5046577;28;20043;-79
2024/03/31 11:38:22;;;;;;;35.25;26.70;;;15.00;99.90;;;;;;5045984;28;20087;-79
2024/03/31 11:40:48;;;;;;;34.75;27.05;;;15.10;99.90;;;;;;5047864;28;20531;-78
2024/03/31 11:43:14;;;;;;;35.78;26.92;;;15.10;99.90;;;;;;5048015;28;20083;-78
2024/03/31 11:45:40;;;;;;;34.47;27.83;;;15.10;99.90;;;;;;5042744;28;20037;-79
2024/03/31 11:48:06;;;;;;;35.67;27.15;;;14.90;99.90;;;;;;5050490;28;20520;-79
2024/03/31 11:50:35;;;;;;;36.40;26.98;;;14.90;99.90;;;;;;5030681;28;20052;-78
2024/03/31 11:53:02;;;;;;;38.60;29.38;;;14.80;99.90;;;;;;5053148;28;20055;-78
2024/03/31 11:55:28;;;;;;;36.85;28.27;;;14.70;99.90;;;;;;5044032;28;20389;-80
2024/03/31 11:57:55;;;;;;;34.22;27.95;;;14.90;99.90;;;;;;5049629;28;20044;-78
2024/03/31 12:00:21;;;;;;;37.45;28.77;;;15.10;99.90;;;;;;5033665;28;20537;-79
2024/03/31 12:02:46;;;;;;;37.30;27.17;;;15.30;99.90;;;;;;5050065;28;20129;-79
2024/03/31 12:05:19;;;;;;;34.35;27.00;;;15.60;99.90;;;;;;5048209;28;20044;-79
2024/03/31 12:07:46;;;;;;;31.15;24.75;;;15.80;99.90;;;;;;5033198;28;20037;-79
2024/03/31 12:10:12;;;;;;;32.72;26.80;;;15.90;99.90;;;;;;5046860;28;20037;-79
2024/03/31 12:12:38;;;;;;;;;;;16.00;99.90;;;;;;5035041;28;20033;-79
2024/03/31 12:15:04;;;;;;;32.75;25.17;;;16.10;99.90;;;;;;5038388;28;20050;-79
2024/03/31 12:17:30;;;;;;;30.58;24.88;;;16.20;99.90;;;;;;5042474;28;20087;-80
2024/03/31 12:19:55;;;;;;;32.28;25.23;;;16.30;99.90;;;;;;5048975;28;20508;-79
2024/03/31 12:22:23;;;;;;;32.78;24.60;;;16.40;99.90;;;;;;5051254;28;20041;-79
2024/03/31 12:24:48;;;;;;;35.60;26.75;;;16.60;99.90;;;;;;5033436;28;20045;-79
2024/03/31 12:27:14;;;;;;;33.92;27.38;;;16.60;99.90;;;;;;5050939;28;20044;-79
2024/03/31 12:29:41;;;;;;;32.50;26.67;;;16.70;99.90;;;;;;5050529;28;20037;-79
2024/03/31 12:32:08;;;;;;;31.52;25.95;;;16.80;99.90;;;;;;5051177;28;20037;-79
2024/03/31 12:34:36;;;;;;;34.10;25.27;;;16.80;99.90;;;;;;5051602;28;20137;-79
2024/03/31 12:37:01;;;;;;;30.77;24.40;;;16.90;99.90;;;;;;5049491;28;20041;-78
2024/03/31 12:39:30;;;;;;;31.13;23.88;;;16.90;99.90;;;;;;5050270;28;20417;-79